Time;durP1;ratioP1;P1;durP2;ratioP2;P2;SDS_P1;SDS_P2;PMS_P1;PMS_P2;Temp;Humidity;BMP_temperature;BMP_pressure;BME280_temperature;BME280_humidity;BME280_pressure;Samples;Min_cycle;Max_cycle;Signal;HPM_P1;HPM_P2
2022/01/19 00:00:27;;;;;;;27.45;7.65;;;;;;;7.68;48.68;102617.75;5082722;28;20123;-73
2022/01/19 00:02:53;;;;;;;20.98;6.18;;;;;;;7.94;48.33;102618.81;5091306;28;20403;-73
2022/01/19 00:05:20;;;;;;;18.67;6.10;;;;;;;7.42;49.36;102617.50;5091734;28;20138;-73
2022/01/19 00:07:46;;;;;;;22.73;6.47;;;;;;;7.58;49.02;102614.78;5092459;28;20044;-73
2022/01/19 00:10:17;;;;;;;26.35;6.00;;;;;;;7.79;48.54;102617.94;5092862;28;20399;-73
2022/01/19 00:12:45;;;;;;;19.52;6.03;;;;;;;7.66;48.99;102618.69;5073618;28;20050;-73
2022/01/19 00:15:12;;;;;;;24.67;6.07;;;;;;;7.58;49.13;102609.44;5091987;28;20105;-72
2022/01/19 00:17:39;;;;;;;17.35;5.85;;;;;;;8.04;47.87;102602.09;5091564;28;20122;-72
2022/01/19 00:20:08;;;;;;;30.63;6.45;;;;;;;7.52;49.06;102605.31;5092071;28;20040;-72
2022/01/19 00:22:34;;;;;;;22.33;5.53;;;;;;;7.44;49.04;102602.28;5091846;28;20039;-72
2022/01/19 00:25:01;;;;;;;19.48;5.40;;;;;;;7.61;49.14;102594.06;5073727;28;20048;-72
2022/01/19 00:27:27;;;;;;;16.98;5.50;;;;;;;7.52;49.06;102589.28;5091461;28;20463;-72
2022/01/19 00:29:53;;;;;;;17.42;5.50;;;;;;;7.22;49.87;102586.69;5080570;28;20523;-72
2022/01/19 00:32:23;;;;;;;11.93;4.65;;;;;;;7.46;49.22;102589.66;5107420;28;20054;-72
2022/01/19 00:34:49;;;;;;;21.13;5.60;;;;;;;7.69;48.89;102582.91;5111866;28;20043;-72
2022/01/19 00:37:15;;;;;;;20.75;5.78;;;;;;;7.89;48.33;102573.69;5111590;28;20046;-73
2022/01/19 00:39:42;;;;;;;22.63;6.22;;;;;;;7.85;48.35;102570.34;5110973;28;20115;-72
2022/01/19 00:42:08;;;;;;;23.67;6.32;;;;;;;7.50;48.63;102576.97;5111258;28;20122;-73
2022/01/19 00:44:35;;;;;;;19.25;5.50;;;;;;;7.89;48.06;102579.88;5111986;28;20062;-73
2022/01/19 00:47:01;;;;;;;19.50;5.70;;;;;;;7.85;48.22;102575.69;5110413;28;20464;-73
2022/01/19 00:49:28;;;;;;;17.20;5.25;;;;;;;7.61;48.81;102561.19;5111613;28;20060;-73
2022/01/19 00:51:54;;;;;;;20.42;6.18;;;;;;;7.79;48.48;102565.34;5110933;28;20126;-73
2022/01/19 00:54:21;;;;;;;19.63;6.10;;;;;;;7.68;48.88;102567.84;5112267;28;20048;-73
2022/01/19 00:56:47;;;;;;;24.40;6.38;;;;;;;7.77;48.57;102571.75;5113939;28;20067;-73
2022/01/19 00:59:14;;;;;;;23.30;6.70;;;;;;;7.51;49.60;102576.91;5115841;28;20527;-73
2022/01/19 01:01:40;;;;;;;23.52;6.95;;;;;;;7.57;49.18;102576.53;5115254;28;20075;-73
2022/01/19 01:04:07;;;;;;;32.50;8.25;;;;;;;7.78;48.57;102565.47;5115294;28;20043;-72
2022/01/19 01:06:34;;;;;;;28.77;7.53;;;;;;;7.42;49.39;102572.13;5114717;28;20488;-72
2022/01/19 01:09:00;;;;;;;28.25;7.53;;;;;;;7.46;49.36;102572.78;5115020;28;20063;-72
2022/01/19 01:11:29;;;;;;;31.15;8.60;;;;;;;7.53;49.25;102579.47;5114845;28;20141;-72
2022/01/19 01:16:34;;;;;;;28.25;9.52;;;;;;;7.50;49.54;102567.19;5115091;28;20071;-72
2022/01/19 01:19:04;;;;;;;35.45;9.50;;;;;;;7.64;49.17;102572.53;5114567;28;20051;-72
2022/01/19 01:21:31;;;;;;;22.65;10.23;;;;;;;7.16;50.21;102565.72;5115392;28;20131;-72
2022/01/19 01:23:58;;;;;;;25.42;10.00;;;;;;;7.69;49.03;102558.88;5115219;28;20494;-72
2022/01/19 01:26:25;;;;;;;32.78;11.55;;;;;;;7.80;48.38;102556.38;5115773;28;20146;-72
2022/01/19 01:28:51;;;;;;;36.53;12.98;;;;;;;7.64;49.15;102543.13;5116031;28;20414;-73
2022/01/19 01:31:18;;;;;;;29.40;11.32;;;;;;;7.74;48.68;102529.19;5113923;28;20047;-72
2022/01/19 01:33:45;;;;;;;26.83;12.48;;;;;;;8.02;48.03;102518.50;5115104;28;20078;-72
2022/01/19 01:36:11;;;;;;;29.20;11.48;;;;;;;7.94;48.30;102520.78;5115790;28;20062;-72
2022/01/19 01:38:38;;;;;;;28.73;11.60;;;;;;;8.06;48.09;102509.31;5115547;28;20456;-72
2022/01/19 01:41:09;;;;;;;31.17;12.35;;;;;;;8.08;47.56;102499.34;5112187;28;20039;-72
2022/01/19 01:43:35;;;;;;;37.67;14.93;;;;;;;7.88;48.47;102495.34;5116539;28;20100;-72
2022/01/19 01:46:05;;;;;;;47.13;13.90;;;;;;;7.53;49.25;102491.34;5115775;28;20051;-72
2022/01/19 01:48:35;;;;;;;35.75;12.45;;;;;;;7.31;50.08;102483.81;5114355;28;20047;-72
2022/01/19 01:53:46;;;;;;;34.90;12.93;;;;;;;7.11;50.62;102453.03;5113847;28;20054;-72
2022/01/19 01:56:16;;;;;;;39.58;13.18;;;;;;;7.30;49.87;102444.75;5114562;28;20070;-72
2022/01/19 01:58:48;;;;;;;38.40;12.93;;;;;;;7.53;49.31;102441.44;5114378;28;20052;-72
2022/01/19 02:01:16;;;;;;;34.13;13.02;;;;;;;7.90;48.21;102449.78;5114135;28;20399;-73
2022/01/19 02:03:44;;;;;;;29.48;12.35;;;;;;;7.58;49.18;102460.72;5114427;28;20493;-72
2022/01/19 02:10:03;;;;;;;38.40;13.18;;;;;;;7.87;48.63;102466.03;5113921;28;20103;-72
2022/01/19 02:23:38;;;;;;;35.33;11.52;;;;;;;7.70;48.62;102432.34;5114257;28;20107;-72
2022/01/19 02:26:10;;;;;;;37.22;11.45;;;;;;;7.59;49.08;102427.69;5114724;28;20118;-72
2022/01/19 02:31:54;;;;;;;30.58;10.38;;;;;;;7.10;49.92;102412.13;5113966;28;20075;-72
2022/01/19 02:42:36;;;;;;;29.73;10.50;;;;;;;7.39;49.35;102388.06;5113068;28;20070;-72
2022/01/19 02:49:59;;;;;;;33.47;11.05;;;;;;;7.26;49.75;102379.16;5114218;28;20130;-72
2022/01/19 02:52:25;;;;;;;26.40;9.60;;;;;;;7.82;48.24;102377.25;5113598;28;20071;-72
2022/01/19 02:54:52;;;;;;;28.38;9.48;;;;;;;7.35;49.35;102375.88;5112985;28;20415;-72
2022/01/19 02:57:24;;;;;;;32.92;10.57;;;;;;;7.46;49.11;102370.69;5113769;28;20118;-72
2022/01/19 03:10:39;;;;;;;29.33;10.88;;;;;;;7.04;49.73;102340.47;5114970;28;20127;-72
2022/01/19 03:13:05;;;;;;;30.73;11.45;;;;;;;7.29;49.43;102338.88;5113435;28;20222;-72
2022/01/19 03:15:32;;;;;;;35.20;12.77;;;;;;;7.11;49.56;102339.13;5113654;28;20124;-72
2022/01/19 03:18:00;;;;;;;28.48;11.13;;;;;;;7.35;48.96;102339.34;5113288;28;20063;-72
2022/01/19 03:20:28;;;;;;;27.63;11.80;;;;;;;7.31;49.20;102334.31;5093629;28;20062;-72
2022/01/19 03:23:04;;;;;;;32.28;12.07;;;;;;;7.20;49.50;102324.34;5112605;28;20456;-72
2022/01/19 03:25:36;;;;;;;40.97;13.02;;;;;;;7.52;48.34;102311.53;5095334;28;20485;-72
2022/01/19 03:28:04;;;;;;;26.42;11.23;;;;;;;7.46;48.94;102309.28;5111654;28;20385;-72
2022/01/19 03:30:32;;;;;;;35.25;12.57;;;;;;;6.68;51.13;102298.31;5111765;28;20464;-72
2022/01/19 03:32:58;;;;;;;30.23;12.65;;;;;;;6.87;50.35;102304.16;5092524;28;20393;-72
2022/01/19 03:35:25;;;;;;;32.22;11.82;;;;;;;7.54;48.67;102293.63;5091757;28;20071;-72
2022/01/19 03:37:51;;;;;;;31.10;13.02;;;;;;;7.08;49.77;102293.94;5092725;28;20032;-72
2022/01/19 03:40:18;;;;;;;26.35;11.52;;;;;;;7.32;49.08;102295.97;5092614;28;20131;-73
2022/01/19 03:42:44;;;;;;;36.72;13.45;;;;;;;7.16;49.61;102294.31;5092028;28;20551;-72
2022/01/19 03:45:11;;;;;;;35.97;12.38;;;;;;;6.95;49.99;102287.69;5090808;28;20052;-72
2022/01/19 03:47:50;;;;;;;32.90;11.50;;;;;;;7.11;49.76;102284.88;5091779;28;20448;-72
2022/01/19 03:50:17;;;;;;;33.95;11.27;;;;;;;6.66;51.08;102274.38;5091412;28;20059;-72
2022/01/19 03:52:43;;;;;;;32.30;11.43;;;;;;;7.15;49.74;102270.38;5092438;28;20130;-72
2022/01/19 03:55:11;;;;;;;24.20;10.85;;;;;;;7.31;49.29;102267.56;5092406;28;20113;-71
2022/01/19 03:57:38;;;;;;;22.55;10.35;;;;;;;7.64;48.34;102270.69;5091891;28;20134;-72
2022/01/19 04:00:07;;;;;;;41.30;10.82;;;;;;;7.03;50.01;102264.03;5093038;28;20051;-72
2022/01/19 04:02:35;;;;;;;30.98;10.13;;;;;;;6.81;50.81;102255.72;5093302;28;20101;-72
2022/01/19 04:05:08;;;;;;;33.13;11.20;;;;;;;7.13;49.87;102248.28;5092480;28;20040;-72
2022/01/19 04:07:35;;;;;;;30.52;10.90;;;;;;;7.40;49.13;102238.47;5092185;28;20135;-72
2022/01/19 04:10:03;;;;;;;26.80;9.27;;;;;;;6.57;50.73;102237.66;5092306;28;20131;-72
2022/01/19 04:12:55;;;;;;;29.17;9.90;;;;;;;6.93;50.18;102236.25;5091908;28;20123;-72
2022/01/19 04:15:23;;;;;;;24.95;9.20;;;;;;;6.82;50.65;102241.41;5091718;28;20066;-72
2022/01/19 04:17:54;;;;;;;25.48;8.88;;;;;;;6.84;50.42;102244.81;5091277;28;20072;-72
2022/01/19 04:20:24;;;;;;;24.40;8.85;;;;;;;7.29;49.36;102245.44;5092218;28;20066;-72
2022/01/19 04:22:53;;;;;;;28.83;9.50;;;;;;;7.13;49.58;102243.81;5091783;28;20052;-72
2022/01/19 04:25:20;;;;;;;23.52;8.45;;;;;;;7.45;48.92;102235.47;5092645;28;20123;-72
2022/01/19 04:27:46;;;;;;;31.38;8.85;;;;;;;7.00;49.99;102229.53;5091983;28;20092;-72
2022/01/19 04:30:14;;;;;;;30.85;10.32;;;;;;;6.36;51.14;102234.53;5092242;28;20136;-72
2022/01/19 04:32:49;;;;;;;32.03;9.63;;;;;;;6.31;51.76;102230.41;5096074;28;20427;-72
2022/01/19 04:35:21;;;;;;;30.73;9.23;;;;;;;7.31;49.49;102222.19;5095165;28;20127;-72
2022/01/19 04:48:47;;;;;;;24.50;9.65;;;;;;;6.95;50.29;102187.16;5094634;28;20044;-72
2022/01/19 04:54:29;;;;;;;24.90;9.27;;;;;;;7.18;49.52;102182.09;5095040;28;20101;-72
2022/01/19 05:02:55;;;;;;;24.10;10.38;;;;;;;6.52;51.15;102162.41;5094764;28;20047;-69
2022/01/19 05:15:47;;;;;;;32.70;11.40;;;;;;;7.10;49.65;102163.94;5094778;28;20561;-69
2022/01/19 05:18:14;;;;;;;26.10;11.07;;;;;;;6.93;49.66;102167.72;5095604;28;20123;-69
2022/01/19 05:20:41;;;;;;;35.25;11.85;;;;;;;6.54;50.79;102168.50;5095572;28;20127;-69
2022/01/19 05:23:07;;;;;;;24.65;11.00;;;;;;;7.04;49.56;102160.81;5095506;28;20119;-69
2022/01/19 05:25:33;;;;;;;30.95;11.30;;;;;;;7.21;49.08;102149.88;5096141;28;20056;-69
2022/01/19 05:28:00;;;;;;;32.83;10.93;;;;;;;6.56;50.85;102144.41;5095136;28;20112;-69
2022/01/19 05:30:26;;;;;;;30.70;10.77;;;;;;;7.00;49.74;102136.16;5094653;28;20039;-69
2022/01/19 05:32:53;;;;;;;30.83;11.98;;;;;;;7.36;48.71;102127.50;5094027;28;20048;-69
2022/01/19 05:35:20;;;;;;;26.95;11.52;;;;;;;7.04;49.80;102129.66;5094063;28;20132;-69
2022/01/19 05:37:46;;;;;;;32.05;11.20;;;;;;;6.93;49.83;102138.38;5094882;28;20135;-69
2022/01/19 05:40:14;;;;;;;29.65;12.93;;;;;;;6.59;50.85;102131.72;5094245;28;20131;-69
2022/01/19 05:42:40;;;;;;;23.25;11.55;;;;;;;7.38;48.92;102122.03;5094158;28;20083;-69
2022/01/19 05:45:07;;;;;;;43.20;18.05;;;;;;;7.37;48.83;102121.19;5095600;28;20040;-69
2022/01/19 05:47:33;;;;;;;40.33;12.55;;;;;;;7.10;49.38;102134.59;5077075;28;20133;-69
2022/01/19 05:50:01;;;;;;;24.88;11.80;;;;;;;6.34;51.09;102118.28;5094590;28;20044;-69
2022/01/19 05:52:27;;;;;;;38.08;12.18;;;;;;;6.53;50.84;102118.81;5089620;28;20130;-69
2022/01/19 05:54:54;;;;;;;33.17;12.38;;;;;;;6.12;51.90;102124.09;5094538;28;20127;-69
2022/01/19 05:57:20;;;;;;;31.35;12.35;;;;;;;6.85;50.24;102118.50;5093311;28;20101;-69
2022/01/19 05:59:47;;;;;;;29.95;12.25;;;;;;;7.13;49.31;102113.03;5093564;28;20131;-69
2022/01/19 06:02:13;;;;;;;30.02;11.93;;;;;;;7.33;48.73;102108.16;5093178;28;20123;-69
2022/01/19 06:04:40;;;;;;;40.15;12.50;;;;;;;6.46;51.08;102112.19;5093379;28;20448;-69
2022/01/19 06:07:06;;;;;;;33.55;12.55;;;;;;;6.67;50.56;102100.09;5094641;28;20199;-70
2022/01/19 06:12:04;;;;;;;26.83;12.20;;;;;;;7.41;48.35;102095.13;5093464;28;20167;-69
2022/01/19 06:14:32;;;;;;;30.98;13.02;;;;;;;7.47;48.43;102100.06;5092074;28;20066;-69
2022/01/19 06:16:59;;;;;;;36.15;12.82;;;;;;;7.30;48.99;102103.03;5093545;28;20052;-69
2022/01/19 06:19:26;;;;;;;27.63;12.10;;;;;;;7.14;49.28;102098.72;5093648;28;20219;-69
2022/01/19 06:21:52;;;;;;;38.88;14.10;;;;;;;6.12;51.62;102081.47;5092998;28;20111;-69
2022/01/19 06:24:19;;;;;;;27.73;14.07;;;;;;;6.60;50.53;102072.13;5092572;28;20044;-69
2022/01/19 06:26:46;;;;;;;37.97;14.68;;;;;;;5.99;52.46;102065.41;5093030;28;20044;-69
2022/01/19 06:29:12;;;;;;;35.58;15.85;;;;;;;6.37;51.65;102054.13;5093276;28;20052;-69
2022/01/19 06:31:39;;;;;;;33.30;14.38;;;;;;;7.00;49.85;102040.09;5093466;28;20131;-69
2022/01/19 06:34:06;;;;;;;33.45;14.27;;;;;;;6.82;49.85;102030.69;5095036;28;20075;-69
2022/01/19 06:36:32;;;;;;;43.40;15.10;;;;;;;6.94;49.52;102020.06;5097528;28;20117;-70
2022/01/19 06:38:59;;;;;;;38.33;14.75;;;;;;;6.69;50.25;102012.81;5097563;28;20404;-69
2022/01/19 06:41:25;;;;;;;37.80;14.00;;;;;;;6.42;51.29;102018.19;5099789;28;20456;-69
2022/01/19 06:43:52;;;;;;;33.45;14.50;;;;;;;6.56;50.56;102014.59;5101544;28;20061;-70
2022/01/19 06:46:19;;;;;;;32.92;13.10;;;;;;;7.14;49.00;102005.31;5100604;28;20051;-69
2022/01/19 06:48:45;;;;;;;30.67;13.60;;;;;;;6.76;49.75;101996.41;5097523;28;20147;-69
2022/01/19 06:51:12;;;;;;;29.98;13.38;;;;;;;6.58;50.69;101987.84;5093068;28;20096;-69
2022/01/19 06:53:38;;;;;;;35.45;13.60;;;;;;;6.85;49.93;101994.00;5093440;28;20075;-69
2022/01/19 06:56:05;;;;;;;27.27;12.38;;;;;;;6.85;50.10;101980.66;5093258;28;20131;-69
2022/01/19 06:58:32;;;;;;;30.83;12.90;;;;;;;6.72;49.90;101974.44;5093431;28;20070;-69
2022/01/19 07:00:58;;;;;;;39.38;11.85;;;;;;;7.07;49.42;101969.34;5093195;28;20048;-70
2022/01/19 07:03:25;;;;;;;34.75;12.10;;;;;;;6.90;49.57;101964.31;5092438;28;20055;-70
2022/01/19 07:05:52;;;;;;;27.50;10.82;;;;;;;6.82;49.92;101966.66;5092762;28;20403;-69
2022/01/19 07:08:18;;;;;;;32.38;11.88;;;;;;;6.83;49.78;101958.56;5092089;28;20143;-69
2022/01/19 07:10:44;;;;;;;31.73;12.30;;;;;;;6.71;50.46;101954.91;5092323;28;20127;-69
2022/01/19 07:13:11;;;;;;;32.88;11.50;;;;;;;6.85;49.87;101953.13;5093176;28;20131;-69
2022/01/19 07:15:40;;;;;;;29.67;10.88;;;;;;;6.11;51.08;101943.84;5092713;28;20044;-69
2022/01/19 07:18:06;;;;;;;39.45;10.85;;;;;;;6.41;50.40;101938.34;5092480;28;20044;-69
2022/01/19 07:20:35;;;;;;;36.25;11.80;;;;;;;6.88;49.87;101932.44;5092550;28;20048;-69
2022/01/19 07:23:02;;;;;;;33.55;10.70;;;;;;;6.19;51.35;101928.22;5091978;28;20198;-69
2022/01/19 07:25:29;;;;;;;29.02;10.60;;;;;;;6.24;51.64;101928.78;5093294;28;20123;-69
2022/01/19 07:27:56;;;;;;;29.48;9.88;;;;;;;6.30;51.20;101922.22;5092185;28;20441;-69
2022/01/19 07:30:24;;;;;;;29.95;11.18;;;;;;;6.60;50.35;101916.59;5092863;28;20048;-69
2022/01/19 07:32:51;;;;;;;31.27;10.05;;;;;;;6.14;51.54;101909.88;5094577;28;20507;-69
2022/01/19 07:35:18;;;;;;;25.70;10.18;;;;;;;5.84;52.35;101896.78;5095593;28;20131;-69
2022/01/19 07:37:45;;;;;;;35.30;11.68;;;;;;;6.12;51.65;101893.16;5111906;28;20047;-70
2022/01/19 07:40:12;;;;;;;32.80;11.05;;;;;;;6.18;51.69;101890.09;5113249;28;20063;-69
2022/01/19 07:42:39;;;;;;;29.55;10.25;;;;;;;5.73;52.63;101875.31;5113468;28;20403;-69
2022/01/19 07:45:06;;;;;;;29.70;10.45;;;;;;;6.41;50.97;101879.69;5113275;28;20046;-69
2022/01/19 07:47:33;;;;;;;25.70;10.57;;;;;;;6.93;49.88;101876.91;5113708;28;20048;-70
2022/01/19 07:49:59;;;;;;;23.73;9.55;;;;;;;6.10;51.30;101878.22;5113311;28;20052;-69
2022/01/19 07:52:26;;;;;;;26.75;9.93;;;;;;;5.57;52.85;101883.47;5113823;28;20126;-70
2022/01/19 07:54:53;;;;;;;19.38;9.00;;;;;;;6.52;50.36;101877.13;5112174;28;20502;-69
2022/01/19 07:57:20;;;;;;;24.88;9.30;;;;;;;6.24;50.78;101873.66;5111184;28;20048;-68
2022/01/19 07:59:46;;;;;;;29.77;10.35;;;;;;;6.33;50.54;101871.38;5111481;28;20071;-68
2022/01/19 08:02:14;;;;;;;23.15;9.35;;;;;;;6.45;50.23;101871.38;5111734;28;20130;-69
2022/01/19 08:04:40;;;;;;;22.48;8.73;;;;;;;6.10;50.90;101872.88;5111999;28;20059;-69
2022/01/19 08:07:07;;;;;;;18.63;9.18;;;;;;;6.10;51.00;101880.88;5115702;28;20089;-68
2022/01/19 08:09:35;;;;;;;28.77;9.90;;;;;;;5.75;51.89;101873.41;5116160;28;20122;-68
2022/01/19 08:12:03;;;;;;;22.40;8.68;;;;;;;6.17;51.32;101859.03;5117446;28;20474;-69
2022/01/19 08:14:29;;;;;;;23.10;9.45;;;;;;;5.74;52.10;101861.91;5118145;28;20058;-70
2022/01/19 08:16:57;;;;;;;25.48;10.18;;;;;;;5.93;51.46;101858.03;5117009;28;20117;-69
2022/01/19 08:19:25;;;;;;;19.40;9.40;;;;;;;5.45;52.57;101855.81;5116757;28;20078;-70
2022/01/19 08:21:52;;;;;;;25.48;9.45;;;;;;;5.27;53.10;101847.22;5115973;28;20075;-70
2022/01/19 08:24:19;;;;;;;24.35;9.20;;;;;;;5.46;52.74;101846.03;5116155;28;20466;-70
2022/01/19 08:26:45;;;;;;;27.20;9.90;;;;;;;5.22;52.93;101841.34;5120763;28;20067;-71
2022/01/19 08:29:12;;;;;;;25.70;9.50;;;;;;;5.65;52.21;101830.56;5121488;28;20053;-70
2022/01/19 08:31:39;;;;;;;20.88;9.32;;;;;;;5.31;53.08;101826.56;5119692;28;20157;-70
2022/01/19 08:34:08;;;;;;;28.33;10.32;;;;;;;5.88;51.38;101831.72;5119611;28;20420;-71
2022/01/19 08:36:34;;;;;;;25.02;10.50;;;;;;;5.86;51.12;101822.97;5120462;28;20051;-71
2022/01/19 08:39:02;;;;;;;28.58;10.43;;;;;;;6.21;50.54;101823.22;5109135;28;20071;-72
2022/01/19 08:41:28;;;;;;;19.23;9.95;;;;;;;5.80;51.45;101820.69;5119821;28;20503;-70
2022/01/19 08:43:55;;;;;;;21.70;10.20;;;;;;;5.94;51.01;101811.78;5118622;28;20398;-71
2022/01/19 08:46:21;;;;;;;33.42;9.88;;;;;;;5.95;50.96;101808.19;5119217;28;20039;-71
2022/01/19 08:48:48;;;;;;;27.50;11.77;;;;;;;5.31;51.91;101810.63;5099186;28;20070;-69
2022/01/19 08:51:14;;;;;;;21.10;10.45;;;;;;;5.36;52.27;101816.50;5118388;28;20406;-71
2022/01/19 08:53:41;;;;;;;29.85;10.68;;;;;;;5.59;51.69;101808.81;5117278;28;20122;-70
2022/01/19 08:56:08;;;;;;;27.27;11.00;;;;;;;6.26;50.31;101801.66;5118891;28;20497;-70
2022/01/19 08:58:35;;;;;;;25.27;11.35;;;;;;;5.94;50.80;101780.69;5118732;28;20043;-71
2022/01/19 09:01:02;;;;;;;23.65;11.20;;;;;;;5.11;52.48;101795.97;5118120;28;20063;-70
2022/01/19 09:03:30;;;;;;;24.05;11.07;;;;;;;5.10;53.02;101794.22;5116429;28;20043;-70
2022/01/19 09:05:56;;;;;;;27.55;12.00;;;;;;;4.93;53.52;101800.63;5118134;28;20486;-71
2022/01/19 09:08:23;;;;;;;29.58;13.20;;;;;;;5.37;52.23;101799.56;5117701;28;20482;-71
2022/01/19 09:10:52;;;;;;;25.88;12.45;;;;;;;5.63;51.33;101803.22;5119313;28;20187;-71
2022/01/19 09:13:19;;;;;;;24.73;12.32;;;;;;;5.48;52.04;101797.06;5118442;28;20452;-71
2022/01/19 09:15:45;;;;;;;25.35;12.63;;;;;;;5.77;51.06;101795.16;5119564;28;20107;-71
2022/01/19 09:18:12;;;;;;;25.58;13.10;;;;;;;5.46;51.79;101792.81;5118589;28;20043;-71
2022/01/19 09:20:38;;;;;;;23.40;12.10;;;;;;;5.55;51.32;101783.34;5099709;28;20168;-70
2022/01/19 09:23:05;;;;;;;23.90;12.35;;;;;;;5.92;50.60;101784.41;5119799;28;20043;-70
2022/01/19 09:25:32;;;;;;;27.13;12.63;;;;;;;5.62;51.21;101774.84;5119111;28;20036;-71
2022/01/19 09:28:00;;;;;;;23.15;12.65;;;;;;;6.03;50.70;101773.03;5118609;28;20123;-71
2022/01/19 09:30:27;;;;;;;23.33;11.80;;;;;;;5.87;50.86;101773.22;5117250;28;20444;-71
2022/01/19 09:33:07;;;;;;;25.48;12.23;;;;;;;5.62;50.98;101768.69;5117658;28;20039;-71
2022/01/19 09:35:53;;;;;;;23.50;11.68;;;;;;;5.61;51.10;101772.31;5118166;28;20071;-71
2022/01/19 09:38:24;;;;;;;26.92;12.32;;;;;;;5.87;50.47;101766.09;5116027;28;20472;-71
2022/01/19 09:40:50;;;;;;;23.85;11.85;;;;;;;5.89;50.57;101761.50;5101267;28;20500;-71
2022/01/19 09:43:21;;;;;;;26.40;13.00;;;;;;;6.36;49.35;101757.41;5118818;28;20040;-71
2022/01/19 09:45:51;;;;;;;21.90;12.18;;;;;;;6.18;49.67;101755.97;5118138;28;20057;-70
2022/01/19 09:48:18;;;;;;;24.58;12.35;;;;;;;5.94;50.19;101754.06;5118440;28;20069;-70
2022/01/19 09:50:45;;;;;;;21.45;11.73;;;;;;;5.44;51.39;101747.66;5118271;28;20119;-70
2022/01/19 09:53:12;;;;;;;22.98;12.63;;;;;;;5.36;51.71;101759.78;5117863;28;20055;-70
2022/01/19 09:55:41;;;;;;;27.17;12.65;;;;;;;6.19;50.16;101750.56;5116385;28;20131;-70
2022/01/19 09:58:08;;;;;;;18.13;11.77;;;;;;;6.44;49.50;101752.38;5097835;28;20047;-71
2022/01/19 10:00:36;;;;;;;25.27;12.80;;;;;;;6.37;49.41;101748.44;5116889;28;20491;-70
2022/01/19 10:03:21;;;;;;;19.85;11.27;;;;;;;6.83;48.25;101736.31;5110261;28;20468;-70
2022/01/19 10:06:05;;;;;;;18.60;11.60;;;;;;;7.01;47.86;101728.78;5115883;28;20494;-70
2022/01/19 10:08:54;;;;;;;21.23;11.57;;;;;;;7.31;47.27;101739.03;5117547;28;20135;-70
2022/01/19 10:17:06;;;;;;;16.10;9.88;;;;;;;6.61;48.13;101713.03;5116302;28;20048;-71
2022/01/19 10:19:42;;;;;;;23.17;11.65;;;;;;;5.95;50.16;101710.47;5114992;28;20123;-70
2022/01/19 10:22:24;;;;;;;27.90;12.32;;;;;;;6.91;48.26;101709.91;5113752;28;20459;-70
2022/01/19 10:25:04;;;;;;;18.02;11.75;;;;;;;6.54;48.77;101717.94;5114554;28;20067;-71
2022/01/19 10:27:45;;;;;;;21.77;12.82;;;;;;;6.31;49.22;101710.72;5114549;28;20111;-70
2022/01/19 10:30:18;;;;;;;19.42;13.02;;;;;;;6.52;48.35;101709.19;5115252;28;20480;-70
2022/01/19 10:32:50;;;;;;;23.05;13.85;;;;;;;5.67;50.21;101703.53;5096311;28;20218;-71
2022/01/19 10:35:33;;;;;;;21.70;14.32;;;;;;;5.88;50.11;101705.69;5097454;28;20492;-71
2022/01/19 10:38:24;;;;;;;22.92;13.73;;;;;;;6.15;49.35;101706.44;5096038;28;20472;-70
2022/01/19 10:40:59;;;;;;;22.77;14.50;;;;;;;5.81;49.83;101702.59;5095086;28;20431;-70
2022/01/19 10:43:26;;;;;;;24.10;15.00;;;;;;;6.14;49.22;101691.38;5094421;28;20497;-70
2022/01/19 10:45:54;;;;;;;29.88;16.35;;;;;;;6.44;48.60;101688.41;5094475;28;20044;-71
2022/01/19 10:48:35;;;;;;;24.58;16.45;;;;;;;6.71;48.02;101680.25;5094011;28;20048;-71
2022/01/19 10:51:16;;;;;;;28.58;15.73;;;;;;;6.04;49.45;101684.16;5096835;28;20155;-71
2022/01/19 10:53:46;;;;;;;21.35;14.60;;;;;;;5.51;50.89;101686.88;5077185;28;20109;-70
2022/01/19 10:56:27;;;;;;;23.20;13.75;;;;;;;4.81;52.35;101672.00;5093550;28;20090;-71
2022/01/19 10:59:03;;;;;;;21.48;14.35;;;;;;;5.05;51.95;101668.69;5092892;28;20432;-70
2022/01/19 11:01:47;;;;;;;25.38;15.15;;;;;;;5.07;51.59;101660.59;5092280;28;20040;-71
2022/01/19 11:04:37;;;;;;;27.40;16.45;;;;;;;5.89;49.73;101664.78;5093717;28;20036;-70
2022/01/19 11:07:06;;;;;;;27.58;16.02;;;;;;;5.42;50.25;101651.13;5095245;28;20039;-71
2022/01/19 11:09:44;;;;;;;26.23;16.02;;;;;;;5.73;50.05;101639.22;5094238;28;20047;-71
2022/01/19 11:12:16;;;;;;;32.28;21.10;;;;;;;4.64;52.29;101629.69;5093523;28;20396;-70
2022/01/19 11:14:45;;;;;;;40.40;22.88;;;;;;;5.58;50.56;101620.78;5093584;28;20131;-71
2022/01/19 11:17:31;;;;;;;39.03;25.98;;;;;;;5.63;49.53;101611.53;5093089;28;20044;-71
2022/01/19 11:20:05;;;;;;;39.60;25.20;;;;;;;5.23;50.88;101603.59;5093001;28;20067;-71
2022/01/19 11:22:37;;;;;;;35.45;22.65;;;;;;;5.22;50.64;101596.59;5092472;28;20072;-70
2022/01/19 11:25:23;;;;;;;36.75;22.27;;;;;;;5.37;50.36;101588.50;5093708;28;20536;-71
2022/01/19 11:28:09;;;;;;;35.92;23.58;;;;;;;5.13;51.09;101562.63;5094531;28;20048;-71
2022/01/19 11:30:45;;;;;;;43.92;25.63;;;;;;;4.82;51.51;101567.34;5094612;28;20056;-71
2022/01/19 11:33:27;;;;;;;47.35;25.98;;;;;;;5.33;50.62;101563.06;5096275;28;20051;-71
2022/01/19 11:35:55;;;;;;;35.75;23.35;;;;;;;4.93;51.66;101563.13;5094694;28;20064;-70
2022/01/19 11:38:32;;;;;;;39.92;23.38;;;;;;;4.87;51.95;101558.19;5095523;28;20048;-71
2022/01/19 11:41:09;;;;;;;37.88;23.73;;;;;;;5.39;50.83;101557.34;5096142;28;20134;-70
2022/01/19 11:43:49;;;;;;;38.60;23.88;;;;;;;5.81;49.90;101558.81;5096703;28;20436;-71
2022/01/19 11:46:34;;;;;;;34.83;21.15;;;;;;;4.82;51.61;101543.41;5095569;28;20040;-71
2022/01/19 11:49:04;;;;;;;29.27;19.90;;;;;;;4.58;52.67;101537.06;5095500;28;20054;-70
2022/01/19 11:51:43;;;;;;;28.67;19.48;;;;;;;4.28;53.52;101529.28;5095562;28;20048;-70
2022/01/19 11:54:12;;;;;;;31.85;20.20;;;;;;;3.94;54.51;101514.69;5095097;28;20064;-70
2022/01/19 11:57:02;;;;;;;28.13;19.15;;;;;;;4.52;53.06;101519.75;5093988;28;20131;-70
2022/01/19 11:59:38;;;;;;;28.13;18.80;;;;;;;4.55;52.95;101516.00;5093851;28;20072;-70
2022/01/19 12:02:32;;;;;;;24.00;17.77;;;;;;;4.56;52.85;101507.09;5096625;28;20115;-73
2022/01/19 12:05:29;;;;;;;24.80;17.58;;;;;;;4.40;53.29;101501.09;5094670;28;20063;-73
2022/01/19 12:08:02;;;;;;;23.95;17.17;;;;;;;4.10;53.83;101487.03;5094307;28;20044;-73
2022/01/19 12:10:32;;;;;;;24.45;17.38;;;;;;;3.96;54.45;101467.63;5094436;28;20048;-73
2022/01/19 12:16:09;;;;;;;28.02;18.77;;;;;;;3.96;53.78;101464.97;5093138;28;20064;-73
2022/01/19 12:18:48;;;;;;;26.40;17.60;;;;;;;4.05;54.36;101445.78;5093961;28;20044;-73
2022/01/19 12:21:31;;;;;;;27.35;18.67;;;;;;;3.66;54.98;101439.47;5093825;28;20073;-73
2022/01/19 12:24:21;;;;;;;28.83;19.27;;;;;;;3.93;54.57;101425.34;5094518;28;20044;-73
2022/01/19 12:26:59;;;;;;;25.45;19.27;;;;;;;4.12;53.81;101420.53;5095967;28;20070;-73
2022/01/19 12:29:36;;;;;;;29.95;19.25;;;;;;;3.73;54.89;101410.72;5094925;28;20185;-73
2022/01/19 12:32:33;;;;;;;25.48;18.13;;;;;;;3.99;54.15;101411.69;5107734;28;20484;-73
2022/01/19 12:35:10;;;;;;;24.42;17.95;;;;;;;4.42;53.10;101419.50;5114831;28;20104;-73
2022/01/19 12:37:42;;;;;;;24.30;18.63;;;;;;;3.90;54.59;101401.66;5114112;28;20040;-73
2022/01/19 12:40:17;;;;;;;23.27;17.55;;;;;;;4.59;52.22;101387.31;5113735;28;20119;-73
2022/01/19 12:42:49;;;;;;;29.50;18.33;;;;;;;4.14;53.81;101362.88;5112889;28;20044;-73
2022/01/19 12:45:22;;;;;;;27.17;18.20;;;;;;;3.52;55.17;101367.88;5112607;28;20097;-73
2022/01/19 12:47:49;;;;;;;26.30;18.80;;;;;;;3.81;54.63;101336.75;5112934;28;20044;-73
2022/01/19 12:50:16;;;;;;;28.48;18.65;;;;;;;3.78;54.29;101313.91;5093354;28;20099;-73
2022/01/19 12:52:55;;;;;;;29.00;19.95;;;;;;;3.70;55.03;101326.00;5114613;28;20067;-73
2022/01/19 12:55:24;;;;;;;27.65;20.08;;;;;;;3.77;54.12;101317.53;5116916;28;20052;-73
2022/01/19 12:57:51;;;;;;;29.15;19.40;;;;;;;3.63;55.01;101329.06;5117869;28;20105;-73
2022/01/19 13:00:22;;;;;;;31.35;21.05;;;;;;;4.34;53.27;101326.97;5117700;28;20059;-73